Time;durP1;ratioP1;P1;durP2;ratioP2;P2;SDS_P1;SDS_P2;PMS_P1;PMS_P2;Temp;Humidity;BMP_temperature;BMP_pressure;BME280_temperature;BME280_humidity;BME280_pressure;Samples;Min_cycle;Max_cycle;Signal;HPM_P1;HPM_P2
2022/10/19 00:01:39;;;;;;;12.90;7.65;;;;;;;;;;5153138;27;20220;-83
2022/10/19 00:04:06;;;;;;;11.43;7.60;;;;;;;;;;5152917;27;20246;-83
2022/10/19 00:06:34;;;;;;;9.98;7.43;;;;;;;;;;5153361;27;20275;-83
2022/10/19 00:09:02;;;;;;;10.75;7.60;;;;;;;;;;5152883;27;20307;-82
2022/10/19 00:11:30;;;;;;;11.23;8.20;;;;;;;;;;5153479;27;20303;-83
2022/10/19 00:13:58;;;;;;;11.85;8.07;;;;;;;;;;5153422;27;20228;-83
2022/10/19 00:16:26;;;;;;;11.02;7.82;;;;;;;;;;5153085;27;20247;-83
2022/10/19 00:18:56;;;;;;;9.65;7.32;;;;;;;;;;5153559;27;20281;-83
2022/10/19 00:21:23;;;;;;;11.50;8.13;;;;;;;;;;5153521;27;20280;-83
2022/10/19 00:23:51;;;;;;;12.98;7.93;;;;;;;;;;5152806;27;20663;-83
2022/10/19 00:26:18;;;;;;;12.02;7.50;;;;;;;;;;5152902;27;20278;-82
2022/10/19 00:28:45;;;;;;;12.88;7.90;;;;;;;;;;5156629;27;20236;-83
2022/10/19 00:31:13;;;;;;;12.43;7.65;;;;;;;;;;5152220;27;20228;-83
2022/10/19 00:33:41;;;;;;;12.30;7.95;;;;;;;;;;5152097;27;20651;-83
2022/10/19 00:36:15;;;;;;;10.65;7.90;;;;;;;;;;5154930;27;20649;-83
2022/10/19 00:38:42;;;;;;;10.40;7.88;;;;;;;;;;5156092;27;20228;-83
2022/10/19 00:41:09;;;;;;;10.00;8.02;;;;;;;;;;5156208;27;20762;-83
2022/10/19 00:43:51;;;;;;;11.55;8.50;;;;;;;;;;5156940;27;20227;-83
2022/10/19 00:46:19;;;;;;;13.98;8.30;;;;;;;;;;5163745;27;20200;-83
2022/10/19 00:48:46;;;;;;;12.52;8.25;;;;;;;;;;5157107;27;20213;-83
2022/10/19 00:51:15;;;;;;;10.15;8.13;;;;;;;;;;5156746;27;20240;-83
2022/10/19 00:53:42;;;;;;;10.20;7.65;;;;;;;;;;5156156;27;20730;-83
2022/10/19 00:56:12;;;;;;;15.20;8.60;;;;;;;;;;5156658;27;20223;-83
2022/10/19 00:58:40;;;;;;;12.52;7.95;;;;;;;;;;5156738;27;20201;-82
2022/10/19 01:01:09;;;;;;;17.52;8.20;;;;;;;;;;5156607;27;20212;-83
2022/10/19 01:03:36;;;;;;;9.02;7.40;;;;;;;;;;5156619;27;20687;-83
2022/10/19 01:06:03;;;;;;;13.50;8.57;;;;;;;;;;5155802;27;20220;-83
2022/10/19 01:08:32;;;;;;;13.77;7.90;;;;;;;;;;5158513;27;20232;-82
2022/10/19 01:11:02;;;;;;;13.82;8.25;;;;;;;;;;5166601;27;20227;-83
2022/10/19 01:13:36;;;;;;;12.65;8.07;;;;;;;;;;5162831;27;20219;-83
2022/10/19 01:16:05;;;;;;;8.57;7.22;;;;;;;;;;5155729;27;20668;-83
2022/10/19 01:18:38;;;;;;;12.35;7.72;;;;;;;;;;5156325;27;20192;-83
2022/10/19 01:21:26;;;;;;;11.02;7.45;;;;;;;;;;5156356;27;20216;-83
2022/10/19 01:24:12;;;;;;;10.60;7.47;;;;;;;;;;5156043;27;20224;-83
2022/10/19 01:26:51;;;;;;;11.60;7.35;;;;;;;;;;5156416;27;20231;-83
2022/10/19 01:29:23;;;;;;;14.07;7.90;;;;;;;;;;5156110;27;20304;-83
2022/10/19 01:31:55;;;;;;;8.60;6.72;;;;;;;;;;5155475;27;20636;-83
2022/10/19 01:34:25;;;;;;;10.95;7.30;;;;;;;;;;5156075;27;20239;-82
2022/10/19 01:36:57;;;;;;;12.48;7.35;;;;;;;;;;5155436;27;20231;-83
2022/10/19 01:39:27;;;;;;;9.45;7.38;;;;;;;;;;5152156;27;20219;-83
2022/10/19 01:41:58;;;;;;;11.20;6.82;;;;;;;;;;5156168;27;20200;-83
2022/10/19 01:44:29;;;;;;;10.98;7.00;;;;;;;;;;5162026;27;20226;-83
2022/10/19 01:47:00;;;;;;;8.77;7.13;;;;;;;;;;5154864;27;20224;-83
2022/10/19 01:49:30;;;;;;;9.68;6.57;;;;;;;;;;5170127;27;20219;-83
2022/10/19 01:51:59;;;;;;;9.60;7.22;;;;;;;;;;5155477;27;20288;-82
2022/10/19 01:54:29;;;;;;;9.70;7.10;;;;;;;;;;5155486;27;20279;-83
2022/10/19 01:56:59;;;;;;;9.75;6.75;;;;;;;;;;5155697;27;20196;-83
2022/10/19 01:59:27;;;;;;;9.02;7.22;;;;;;;;;;5155199;27;20287;-82
2022/10/19 02:01:55;;;;;;;10.15;7.20;;;;;;;;;;5155088;27;20326;-83
2022/10/19 02:04:24;;;;;;;10.38;6.70;;;;;;;;;;5155298;27;20200;-82
2022/10/19 02:06:52;;;;;;;11.93;7.18;;;;;;;;;;5154814;27;20339;-83
2022/10/19 02:09:19;;;;;;;9.20;7.22;;;;;;;;;;5154712;27;20332;-83
2022/10/19 02:11:48;;;;;;;10.95;7.20;;;;;;;;;;5156530;27;20195;-83
2022/10/19 02:14:17;;;;;;;10.02;7.10;;;;;;;;;;5158373;27;20283;-83
2022/10/19 02:16:47;;;;;;;7.75;6.65;;;;;;;;;;5155071;27;20287;-82
2022/10/19 02:19:15;;;;;;;10.02;7.10;;;;;;;;;;5155238;27;20279;-82
2022/10/19 02:21:44;;;;;;;9.43;7.25;;;;;;;;;;5162961;27;20216;-82
2022/10/19 02:24:11;;;;;;;9.48;7.03;;;;;;;;;;5154659;27;20723;-83
2022/10/19 02:26:39;;;;;;;11.43;6.97;;;;;;;;;;5154672;27;20184;-82
2022/10/19 02:29:06;;;;;;;8.25;6.85;;;;;;;;;;5154174;27;20244;-82
2022/10/19 02:31:33;;;;;;;9.27;6.50;;;;;;;;;;5164028;27;20236;-83
2022/10/19 02:34:00;;;;;;;10.07;6.63;;;;;;;;;;5154624;27;20228;-83
2022/10/19 02:36:28;;;;;;;10.18;7.03;;;;;;;;;;5154801;27;20639;-82
2022/10/19 02:38:56;;;;;;;8.93;6.70;;;;;;;;;;5154976;27;20228;-83
2022/10/19 02:41:25;;;;;;;9.88;6.85;;;;;;;;;;5154286;27;20307;-83
2022/10/19 02:43:55;;;;;;;11.82;7.03;;;;;;;;;;5154480;27;20276;-82
2022/10/19 02:46:24;;;;;;;7.57;6.43;;;;;;;;;;5167406;27;20242;-82
2022/10/19 02:48:52;;;;;;;12.35;6.78;;;;;;;;;;5163562;27;20288;-82
2022/10/19 02:51:29;;;;;;;10.07;6.78;;;;;;;;;;5154424;27;20630;-82
2022/10/19 02:53:58;;;;;;;13.70;7.00;;;;;;;;;;5154660;27;20223;-83
2022/10/19 02:56:25;;;;;;;10.68;6.68;;;;;;;;;;5154008;27;20220;-82
2022/10/19 02:58:52;;;;;;;9.82;6.32;;;;;;;;;;5152754;27;20204;-82
2022/10/19 03:01:20;;;;;;;8.88;6.82;;;;;;;;;;5135973;27;20272;-82
2022/10/19 03:03:47;;;;;;;10.00;6.20;;;;;;;;;;5133777;27;20237;-83
2022/10/19 03:06:15;;;;;;;10.88;6.75;;;;;;;;;;5153013;27;20649;-82
2022/10/19 03:08:42;;;;;;;8.10;6.50;;;;;;;;;;5153115;27;20723;-83
2022/10/19 03:11:11;;;;;;;11.02;6.75;;;;;;;;;;5154341;27;20228;-81
2022/10/19 03:13:38;;;;;;;11.50;6.55;;;;;;;;;;5135802;27;20291;-83
2022/10/19 03:16:09;;;;;;;10.30;7.00;;;;;;;;;;5154063;27;20238;-83
2022/10/19 03:18:36;;;;;;;11.85;6.50;;;;;;;;;;5153395;27;20279;-83
2022/10/19 03:21:04;;;;;;;10.07;6.93;;;;;;;;;;5153352;27;20309;-83
2022/10/19 03:23:32;;;;;;;13.45;7.80;;;;;;;;;;5153685;27;20224;-83
2022/10/19 03:25:59;;;;;;;10.85;7.03;;;;;;;;;;5148630;27;20283;-83
2022/10/19 03:28:27;;;;;;;11.52;7.50;;;;;;;;;;5153403;27;20236;-83
2022/10/19 03:30:55;;;;;;;10.13;7.15;;;;;;;;;;5152891;27;20235;-83
2022/10/19 03:33:22;;;;;;;10.98;7.30;;;;;;;;;;5153678;27;20284;-83
2022/10/19 03:35:49;;;;;;;10.57;7.40;;;;;;;;;;5154245;27;20279;-82
2022/10/19 03:38:16;;;;;;;11.25;7.32;;;;;;;;;;5153277;27;20277;-83
2022/10/19 03:40:43;;;;;;;12.38;7.00;;;;;;;;;;5153744;27;20307;-83
2022/10/19 03:43:11;;;;;;;11.40;6.97;;;;;;;;;;5153673;27;20731;-83
2022/10/19 03:45:39;;;;;;;9.57;6.95;;;;;;;;;;5159302;27;20192;-83
2022/10/19 03:48:07;;;;;;;8.82;6.90;;;;;;;;;;5174473;27;20268;-83
2022/10/19 03:50:34;;;;;;;8.93;6.50;;;;;;;;;;5174897;27;20634;-83
2022/10/19 03:53:01;;;;;;;9.63;6.55;;;;;;;;;;5174496;27;20236;-83
2022/10/19 03:55:28;;;;;;;14.63;6.93;;;;;;;;;;5174920;27;20223;-83
2022/10/19 03:57:55;;;;;;;9.88;6.88;;;;;;;;;;5174532;27;20223;-82
2022/10/19 04:00:23;;;;;;;9.82;7.05;;;;;;;;;;5174138;27;20674;-83
2022/10/19 04:02:51;;;;;;;13.48;7.18;;;;;;;;;;5161998;27;20275;-83
2022/10/19 04:05:18;;;;;;;10.25;6.90;;;;;;;;;;5152721;27;20633;-83
2022/10/19 04:07:46;;;;;;;12.38;7.30;;;;;;;;;;5153560;27;20298;-84
2022/10/19 04:10:13;;;;;;;12.82;7.15;;;;;;;;;;5153278;27;20738;-83
2022/10/19 04:12:40;;;;;;;10.80;7.18;;;;;;;;;;5160364;27;20921;-83
2022/10/19 04:15:08;;;;;;;8.05;6.88;;;;;;;;;;5158362;27;20302;-83
2022/10/19 04:17:35;;;;;;;14.55;6.95;;;;;;;;;;5157426;27;20228;-83
2022/10/19 04:20:04;;;;;;;12.00;7.38;;;;;;;;;;5156995;27;20193;-83
2022/10/19 04:22:31;;;;;;;10.02;7.05;;;;;;;;;;5155880;27;20255;-83
2022/10/19 04:24:58;;;;;;;9.75;6.97;;;;;;;;;;5156419;27;20221;-83
2022/10/19 04:27:25;;;;;;;11.13;7.88;;;;;;;;;;5169188;27;20228;-83
2022/10/19 04:29:52;;;;;;;9.68;7.38;;;;;;;;;;5156401;27;20247;-83
2022/10/19 04:32:20;;;;;;;12.57;7.78;;;;;;;;;;5157099;27;20192;-83
2022/10/19 04:34:47;;;;;;;11.32;7.30;;;;;;;;;;5156337;27;20235;-83
2022/10/19 04:37:15;;;;;;;11.90;7.88;;;;;;;;;;5156445;27;20216;-83
2022/10/19 04:39:43;;;;;;;10.52;7.70;;;;;;;;;;5156138;27;20231;-83
2022/10/19 04:42:10;;;;;;;15.25;7.30;;;;;;;;;;5156728;27;20271;-83
2022/10/19 04:44:38;;;;;;;7.93;7.07;;;;;;;;;;5156544;27;20227;-83
2022/10/19 04:47:05;;;;;;;10.25;7.35;;;;;;;;;;5158261;27;20207;-83
2022/10/19 04:49:32;;;;;;;9.98;7.32;;;;;;;;;;5162929;27;20288;-82
2022/10/19 04:51:59;;;;;;;9.65;7.10;;;;;;;;;;5156009;27;20323;-82
2022/10/19 04:54:28;;;;;;;13.23;7.20;;;;;;;;;;5157355;27;20283;-82
2022/10/19 04:56:55;;;;;;;11.23;7.75;;;;;;;;;;5156354;27;20227;-83
2022/10/19 04:59:22;;;;;;;10.00;7.55;;;;;;;;;;5156913;27;20283;-82
2022/10/19 05:01:50;;;;;;;16.83;7.25;;;;;;;;;;5156610;27;20631;-80
2022/10/19 05:04:17;;;;;;;15.68;8.18;;;;;;;;;;5156786;27;20279;-80
2022/10/19 05:06:44;;;;;;;9.30;7.28;;;;;;;;;;5157089;27;20232;-82
2022/10/19 05:09:12;;;;;;;15.38;7.55;;;;;;;;;;5155210;27;20259;-81
2022/10/19 05:11:40;;;;;;;11.05;7.90;;;;;;;;;;5150317;27;20228;-81
2022/10/19 05:14:08;;;;;;;11.98;7.75;;;;;;;;;;5159310;27;20678;-82
2022/10/19 05:16:35;;;;;;;10.93;7.40;;;;;;;;;;5158451;27;20227;-82
2022/10/19 05:19:02;;;;;;;11.00;7.80;;;;;;;;;;5142807;27;20287;-82
2022/10/19 05:21:29;;;;;;;10.77;7.53;;;;;;;;;;5155885;27;20216;-81
2022/10/19 05:23:57;;;;;;;11.40;7.78;;;;;;;;;;5162827;27;20195;-81
2022/10/19 05:26:25;;;;;;;12.80;7.75;;;;;;;;;;5160391;27;20252;-82
2022/10/19 05:28:55;;;;;;;11.43;7.32;;;;;;;;;;5154914;27;20238;-82
2022/10/19 05:31:23;;;;;;;16.27;8.10;;;;;;;;;;5163216;27;20673;-82
2022/10/19 05:33:51;;;;;;;12.70;7.90;;;;;;;;;;5152820;27;20231;-82
2022/10/19 05:36:18;;;;;;;12.73;8.07;;;;;;;;;;5162089;27;20279;-84
2022/10/19 05:38:46;;;;;;;10.70;7.55;;;;;;;;;;5154243;27;20239;-82
2022/10/19 05:41:14;;;;;;;14.20;7.80;;;;;;;;;;5154604;27;20308;-82
2022/10/19 05:43:41;;;;;;;12.70;7.75;;;;;;;;;;5151220;27;20192;-82
2022/10/19 05:46:26;;;;;;;12.52;7.72;;;;;;;;;;5153096;27;20723;-82
2022/10/19 05:48:53;;;;;;;12.18;7.60;;;;;;;;;;5151204;27;20224;-83
2022/10/19 05:51:21;;;;;;;12.20;7.17;;;;;;;;;;5157429;27;20224;-80
2022/10/19 05:53:48;;;;;;;13.38;7.43;;;;;;;;;;5136021;27;20721;-80
2022/10/19 05:56:16;;;;;;;9.32;7.28;;;;;;;;;;5158196;27;20258;-80
2022/10/19 05:58:43;;;;;;;10.68;7.72;;;;;;;;;;5152578;27;20242;-80
2022/10/19 06:01:11;;;;;;;10.82;7.80;;;;;;;;;;5156593;27;20243;-80
2022/10/19 06:03:40;;;;;;;12.65;7.85;;;;;;;;;;5154963;27;20280;-80
2022/10/19 06:06:08;;;;;;;10.35;7.25;;;;;;;;;;5158892;27;20239;-80
2022/10/19 06:08:35;;;;;;;10.88;7.28;;;;;;;;;;5152053;27;20231;-80
2022/10/19 06:11:07;;;;;;;8.93;7.90;;;;;;;;;;5156529;27;20631;-80
2022/10/19 06:13:34;;;;;;;10.27;7.13;;;;;;;;;;5143220;27;20228;-80
2022/10/19 06:16:01;;;;;;;13.75;8.30;;;;;;;;;;5153830;27;20232;-80
2022/10/19 06:18:28;;;;;;;12.25;8.20;;;;;;;;;;5155671;27;20236;-80
2022/10/19 06:21:01;;;;;;;12.85;7.38;;;;;;;;;;5148652;27;20283;-80
2022/10/19 06:23:28;;;;;;;14.63;7.55;;;;;;;;;;5153001;27;20208;-80
2022/10/19 06:25:56;;;;;;;9.65;7.30;;;;;;;;;;5153930;27;20216;-80
2022/10/19 06:28:23;;;;;;;11.93;7.78;;;;;;;;;;5154486;27;20287;-80
2022/10/19 06:30:50;;;;;;;11.23;7.82;;;;;;;;;;5154165;27;20240;-80
2022/10/19 06:33:17;;;;;;;15.30;7.75;;;;;;;;;;5167093;27;20227;-80
2022/10/19 06:35:44;;;;;;;10.75;7.78;;;;;;;;;;5154556;27;20726;-80
2022/10/19 06:38:13;;;;;;;11.05;7.40;;;;;;;;;;5154522;27;20242;-80
2022/10/19 06:40:40;;;;;;;10.02;7.22;;;;;;;;;;5151422;27;20588;-79
2022/10/19 06:43:08;;;;;;;10.98;7.65;;;;;;;;;;5154382;27;20250;-80
2022/10/19 06:45:37;;;;;;;10.05;7.22;;;;;;;;;;5151431;27;20287;-80
2022/10/19 06:48:05;;;;;;;14.40;7.85;;;;;;;;;;5154548;27;20197;-79
2022/10/19 06:50:32;;;;;;;12.50;7.60;;;;;;;;;;5152085;27;20200;-79
2022/10/19 06:52:59;;;;;;;12.48;7.55;;;;;;;;;;5153355;27;20193;-79
2022/10/19 06:55:27;;;;;;;13.13;7.15;;;;;;;;;;5154018;27;20774;-80
2022/10/19 06:57:55;;;;;;;11.18;7.40;;;;;;;;;;5153890;27;20652;-80
2022/10/19 07:00:22;;;;;;;12.90;7.68;;;;;;;;;;5153674;27;20224;-80
2022/10/19 07:02:49;;;;;;;11.23;7.70;;;;;;;;;;5153416;27;20315;-79
2022/10/19 07:05:16;;;;;;;12.55;7.32;;;;;;;;;;5154292;27;20279;-80
2022/10/19 07:07:44;;;;;;;10.98;7.00;;;;;;;;;;5153677;27;20251;-80
2022/10/19 07:10:11;;;;;;;11.80;7.25;;;;;;;;;;5152913;27;20235;-80
2022/10/19 07:12:40;;;;;;;10.60;6.78;;;;;;;;;;5153304;27;20235;-80
2022/10/19 07:15:07;;;;;;;10.57;7.25;;;;;;;;;;5137391;27;20204;-80
2022/10/19 07:17:34;;;;;;;10.07;7.30;;;;;;;;;;5153104;27;20292;-80
2022/10/19 07:20:02;;;;;;;10.95;7.05;;;;;;;;;;5142920;27;20231;-79
2022/10/19 07:22:29;;;;;;;8.43;6.35;;;;;;;;;;5159260;27;20303;-80
2022/10/19 07:24:57;;;;;;;8.90;6.28;;;;;;;;;;5151334;27;20228;-80
2022/10/19 07:27:24;;;;;;;11.45;6.55;;;;;;;;;;5153679;27;20197;-80
2022/10/19 07:29:52;;;;;;;9.82;6.20;;;;;;;;;;5153317;27;20739;-80
2022/10/19 07:32:20;;;;;;;10.15;6.07;;;;;;;;;;5153958;27;20275;-80
2022/10/19 07:34:47;;;;;;;11.23;6.40;;;;;;;;;;5150684;27;20200;-80
2022/10/19 07:37:14;;;;;;;7.65;5.43;;;;;;;;;;5153695;27;20642;-80
2022/10/19 07:39:41;;;;;;;9.48;5.75;;;;;;;;;;5154514;27;20239;-80
2022/10/19 07:42:08;;;;;;;10.05;5.90;;;;;;;;;;5155141;27;20273;-80
2022/10/19 07:44:35;;;;;;;10.23;5.65;;;;;;;;;;5153430;27;20287;-80
2022/10/19 07:47:05;;;;;;;9.52;5.57;;;;;;;;;;5157032;27;20196;-80
2022/10/19 07:49:32;;;;;;;10.02;5.53;;;;;;;;;;5157950;27;20196;-80
2022/10/19 07:51:59;;;;;;;10.57;5.80;;;;;;;;;;5160139;27;20282;-80
2022/10/19 07:54:26;;;;;;;12.80;5.97;;;;;;;;;;5159018;27;21087;-80
2022/10/19 07:56:53;;;;;;;9.73;5.88;;;;;;;;;;5157145;27;20235;-80
2022/10/19 07:59:20;;;;;;;8.57;5.50;;;;;;;;;;5156823;27;20291;-80
2022/10/19 08:01:48;;;;;;;8.43;5.35;;;;;;;;;;5157873;27;20299;-80
2022/10/19 08:04:17;;;;;;;7.38;5.47;;;;;;;;;;5152854;27;20207;-80
2022/10/19 08:06:44;;;;;;;11.23;5.18;;;;;;;;;;5155345;27;20689;-80
2022/10/19 08:09:12;;;;;;;8.07;5.50;;;;;;;;;;5156112;27;20675;-80
2022/10/19 08:11:39;;;;;;;7.72;4.97;;;;;;;;;;5156769;27;20673;-80
2022/10/19 08:14:06;;;;;;;7.35;5.72;;;;;;;;;;5155970;27;20279;-80
2022/10/19 08:16:36;;;;;;;10.40;5.53;;;;;;;;;;5159218;27;20204;-80
2022/10/19 08:19:05;;;;;;;7.88;5.15;;;;;;;;;;5157895;27;20200;-80
2022/10/19 08:21:35;;;;;;;8.25;5.32;;;;;;;;;;5155435;27;20201;-80
2022/10/19 08:24:02;;;;;;;7.85;5.57;;;;;;;;;;5156429;27;20309;-80
2022/10/19 08:26:30;;;;;;;10.55;5.75;;;;;;;;;;5157169;27;20232;-80
2022/10/19 08:29:00;;;;;;;9.77;6.20;;;;;;;;;;5154275;27;20244;-80
2022/10/19 08:31:27;;;;;;;10.23;5.85;;;;;;;;;;5151269;27;20288;-80
2022/10/19 08:33:55;;;;;;;8.88;5.68;;;;;;;;;;5153673;27;20715;-80
2022/10/19 08:36:22;;;;;;;8.43;5.40;;;;;;;;;;5156164;27;21828;-80
2022/10/19 08:38:51;;;;;;;10.05;5.15;;;;;;;;;;5158009;27;20223;-80
2022/10/19 08:41:23;;;;;;;7.63;5.50;;;;;;;;;;5161930;27;20240;-80
2022/10/19 08:44:13;;;;;;;7.53;5.28;;;;;;;;;;5160560;27;20225;-80
2022/10/19 08:46:46;;;;;;;7.72;4.45;;;;;;;;;;5155872;27;20247;-80
2022/10/19 08:49:15;;;;;;;7.28;4.70;;;;;;;;;;5149213;27;20231;-81
2022/10/19 08:51:43;;;;;;;8.38;4.82;;;;;;;;;;5162260;27;20300;-80
2022/10/19 08:54:16;;;;;;;7.32;4.90;;;;;;;;;;5155932;27;20227;-80
2022/10/19 08:56:48;;;;;;;10.18;4.30;;;;;;;;;;5152565;27;20301;-80
2022/10/19 08:59:20;;;;;;;8.85;4.65;;;;;;;;;;5139502;27;20200;-81
2022/10/19 09:01:51;;;;;;;10.02;4.82;;;;;;;;;;5154480;27;20287;-80
2022/10/19 09:04:22;;;;;;;13.85;4.47;;;;;;;;;;5161729;27;20228;-81
2022/10/19 09:06:56;;;;;;;7.43;4.70;;;;;;;;;;5155124;27;20200;-81
2022/10/19 09:09:26;;;;;;;9.27;5.03;;;;;;;;;;5156180;27;20327;-80
2022/10/19 09:11:56;;;;;;;10.70;4.75;;;;;;;;;;5155630;27;20249;-81
2022/10/19 09:14:26;;;;;;;6.75;4.53;;;;;;;;;;5156203;27;20630;-81
2022/10/19 09:16:54;;;;;;;9.43;4.10;;;;;;;;;;5165765;27;20738;-81
2022/10/19 09:19:24;;;;;;;4.50;3.63;;;;;;;;;;5154483;27;20287;-81
2022/10/19 09:21:54;;;;;;;7.03;4.20;;;;;;;;;;5154843;27;20200;-79
2022/10/19 09:24:35;;;;;;;6.97;4.15;;;;;;;;;;5154988;27;20232;-81
2022/10/19 09:27:02;;;;;;;5.35;3.78;;;;;;;;;;5154406;27;20288;-80
2022/10/19 09:29:34;;;;;;;5.45;3.63;;;;;;;;;;5156282;27;20711;-81
2022/10/19 09:32:04;;;;;;;6.18;3.50;;;;;;;;;;5161662;27;20751;-80
2022/10/19 09:34:33;;;;;;;8.15;3.90;;;;;;;;;;5154391;27;20288;-81
2022/10/19 09:37:01;;;;;;;6.10;4.25;;;;;;;;;;5154419;27;20279;-81
2022/10/19 09:39:29;;;;;;;7.82;3.58;;;;;;;;;;5155060;27;20279;-81
2022/10/19 09:41:59;;;;;;;9.27;4.20;;;;;;;;;;5155513;27;20193;-81
2022/10/19 09:44:27;;;;;;;8.25;3.55;;;;;;;;;;5157202;27;20234;-81
2022/10/19 09:46:58;;;;;;;10.40;4.10;;;;;;;;;;5155610;27;20283;-81
2022/10/19 09:49:39;;;;;;;7.93;3.40;;;;;;;;;;5145372;27;20232;-81
2022/10/19 09:52:06;;;;;;;9.93;3.75;;;;;;;;;;5151767;27;20248;-80
2022/10/19 09:54:35;;;;;;;7.60;3.83;;;;;;;;;;5157358;27;20283;-81
2022/10/19 09:57:04;;;;;;;7.50;3.85;;;;;;;;;;5156048;27;20683;-81
2022/10/19 09:59:34;;;;;;;7.72;3.65;;;;;;;;;;5156031;27;20230;-80
2022/10/19 10:02:05;;;;;;;8.65;4.15;;;;;;;;;;5154849;27;20224;-81
2022/10/19 10:04:35;;;;;;;8.00;3.60;;;;;;;;;;5153757;27;20283;-81
2022/10/19 10:07:04;;;;;;;6.38;3.67;;;;;;;;;;5154369;27;20641;-81
2022/10/19 10:09:31;;;;;;;9.07;3.65;;;;;;;;;;5155903;27;20315;-81
2022/10/19 10:11:59;;;;;;;7.90;3.75;;;;;;;;;;5155279;27;20691;-81
2022/10/19 10:14:31;;;;;;;10.52;4.07;;;;;;;;;;5156982;27;20669;-80
2022/10/19 10:16:59;;;;;;;8.13;4.25;;;;;;;;;;5149960;27;20750;-81
2022/10/19 10:19:28;;;;;;;5.68;3.65;;;;;;;;;;5155489;27;20284;-81
2022/10/19 10:21:56;;;;;;;6.30;3.50;;;;;;;;;;5153732;27;20743;-80
2022/10/19 10:24:25;;;;;;;6.85;3.55;;;;;;;;;;5156058;27;20255;-81
2022/10/19 10:26:53;;;;;;;7.43;3.70;;;;;;;;;;5155229;27;20275;-81
2022/10/19 10:29:22;;;;;;;7.43;3.67;;;;;;;;;;5155395;27;20255;-81
2022/10/19 10:31:52;;;;;;;6.80;3.70;;;;;;;;;;5154009;27;20292;-81
2022/10/19 10:34:23;;;;;;;7.80;3.83;;;;;;;;;;5153762;27;20231;-81
2022/10/19 10:36:51;;;;;;;7.03;3.55;;;;;;;;;;5153972;27;20250;-81
2022/10/19 10:39:19;;;;;;;5.15;3.20;;;;;;;;;;5154880;27;20192;-81
2022/10/19 10:41:48;;;;;;;6.28;3.10;;;;;;;;;;5153479;27;20201;-81
2022/10/19 10:44:18;;;;;;;4.80;3.28;;;;;;;;;;5153897;27;20307;-81
2022/10/19 10:46:50;;;;;;;7.60;3.47;;;;;;;;;;5156208;27;20771;-80
2022/10/19 10:49:21;;;;;;;8.93;3.35;;;;;;;;;;5147981;27;20306;-80
2022/10/19 10:51:49;;;;;;;9.13;3.42;;;;;;;;;;5160192;27;20199;-81
2022/10/19 10:54:18;;;;;;;6.80;3.40;;;;;;;;;;5148076;27;20220;-80
2022/10/19 10:56:56;;;;;;;8.65;3.20;;;;;;;;;;5153670;27;20283;-81
2022/10/19 10:59:25;;;;;;;7.57;3.45;;;;;;;;;;5151482;27;20279;-80
2022/10/19 11:01:57;;;;;;;8.27;3.95;;;;;;;;;;5148370;27;20224;-81
2022/10/19 11:04:29;;;;;;;9.25;4.13;;;;;;;;;;5140007;27;20252;-80
2022/10/19 11:06:58;;;;;;;7.53;3.47;;;;;;;;;;5150148;27;20234;-80
2022/10/19 11:09:29;;;;;;;7.65;3.72;;;;;;;;;;5146260;27;20327;-81
2022/10/19 11:11:58;;;;;;;11.05;4.13;;;;;;;;;;5151719;27;20299;-80
2022/10/19 11:14:31;;;;;;;6.47;3.67;;;;;;;;;;5154010;27;20188;-80
2022/10/19 11:17:01;;;;;;;6.28;3.55;;;;;;;;;;5151440;27;20292;-80
2022/10/19 11:19:32;;;;;;;11.73;3.80;;;;;;;;;;5150905;27;20272;-80
2022/10/19 11:22:04;;;;;;;9.60;3.78;;;;;;;;;;5154787;27;20198;-80
2022/10/19 11:24:35;;;;;;;5.30;3.20;;;;;;;;;;5157355;27;20234;-80
2022/10/19 11:27:09;;;;;;;8.85;3.35;;;;;;;;;;5156099;27;20220;-81
2022/10/19 11:29:46;;;;;;;9.63;3.38;;;;;;;;;;5150003;27;20220;-80
2022/10/19 11:32:18;;;;;;;8.85;3.40;;;;;;;;;;5139897;27;20227;-81
2022/10/19 11:34:54;;;;;;;7.93;3.50;;;;;;;;;;5148877;27;20261;-82
2022/10/19 11:37:25;;;;;;;9.07;3.30;;;;;;;;;;5154606;27;20663;-81
2022/10/19 11:40:00;;;;;;;6.40;3.25;;;;;;;;;;5154333;27;20707;-81
2022/10/19 11:42:34;;;;;;;7.20;3.30;;;;;;;;;;5146806;27;20302;-80
2022/10/19 11:45:06;;;;;;;7.50;3.60;;;;;;;;;;5152763;27;20222;-81
2022/10/19 11:47:49;;;;;;;7.50;3.63;;;;;;;;;;5150725;27;20750;-80
2022/10/19 11:50:22;;;;;;;8.38;4.03;;;;;;;;;;5144037;27;20203;-80
2022/10/19 11:52:51;;;;;;;11.00;4.20;;;;;;;;;;5151717;27;20295;-80
2022/10/19 11:55:24;;;;;;;7.60;3.95;;;;;;;;;;5142999;27;20246;-80
2022/10/19 11:57:54;;;;;;;8.10;4.07;;;;;;;;;;5149556;27;20239;-81
2022/10/19 12:00:22;;;;;;;9.20;3.90;;;;;;;;;;5143329;27;20283;-81
2022/10/19 12:03:10;;;;;;;6.10;3.60;;;;;;;;;;5154563;27;20759;-80
2022/10/19 12:05:42;;;;;;;12.32;4.05;;;;;;;;;;5131961;27;20259;-81
2022/10/19 12:08:16;;;;;;;7.55;3.67;;;;;;;;;;5158672;27;20208;-81
2022/10/19 12:10:48;;;;;;;6.22;3.72;;;;;;;;;;5149701;27;20251;-81
2022/10/19 12:13:17;;;;;;;9.38;3.60;;;;;;;;;;5151708;27;20196;-82
2022/10/19 12:15:46;;;;;;;11.23;3.75;;;;;;;;;;5147885;27;20244;-82
2022/10/19 12:18:18;;;;;;;10.25;3.72;;;;;;;;;;5157196;27;20208;-83
2022/10/19 12:20:48;;;;;;;8.77;4.00;;;;;;;;;;5155430;27;20275;-82
2022/10/19 12:23:21;;;;;;;5.40;3.58;;;;;;;;;;5150034;27;20228;-82
2022/10/19 12:25:49;;;;;;;7.45;3.50;;;;;;;;;;5151029;27;20288;-83
2022/10/19 12:28:20;;;;;;;10.80;3.95;;;;;;;;;;5148196;27;20798;-82
2022/10/19 12:30:47;;;;;;;5.97;3.83;;;;;;;;;;5151688;27;20265;-82
2022/10/19 12:33:17;;;;;;;6.70;3.60;;;;;;;;;;5155669;27;20240;-82
2022/10/19 12:35:52;;;;;;;9.15;3.45;;;;;;;;;;5155447;27;20212;-82
2022/10/19 12:38:22;;;;;;;10.18;4.03;;;;;;;;;;5150184;27;20292;-82
2022/10/19 12:40:54;;;;;;;9.95;3.78;;;;;;;;;;5155620;27;20196;-82
2022/10/19 12:43:26;;;;;;;10.07;4.13;;;;;;;;;;5150090;27;20299;-82
2022/10/19 12:45:55;;;;;;;11.10;3.60;;;;;;;;;;5152487;27;20279;-82
2022/10/19 12:48:24;;;;;;;8.05;3.55;;;;;;;;;;5154929;27;20663;-82
2022/10/19 12:51:00;;;;;;;8.82;3.80;;;;;;;;;;5157005;27;20269;-82
2022/10/19 12:53:29;;;;;;;8.32;4.20;;;;;;;;;;5155552;27;20204;-82
2022/10/19 12:56:00;;;;;;;7.93;3.90;;;;;;;;;;5152789;27;20680;-82
2022/10/19 12:58:31;;;;;;;7.30;3.95;;;;;;;;;;5142718;27;20256;-82
2022/10/19 13:00:59;;;;;;;10.27;3.83;;;;;;;;;;5153986;27;20197;-82
2022/10/19 13:03:30;;;;;;;10.45;3.70;;;;;;;;;;5155991;27;20251;-82
2022/10/19 13:05:58;;;;;;;11.23;4.18;;;;;;;;;;5153840;27;20284;-82
2022/10/19 13:08:28;;;;;;;9.68;4.05;;;;;;;;;;5155343;27;20254;-82
2022/10/19 13:11:04;;;;;;;7.72;3.45;;;;;;;;;;5154392;27;20259;-82
2022/10/19 13:13:50;;;;;;;11.70;4.60;;;;;;;;;;5154145;27;20731;-82
2022/10/19 13:16:47;;;;;;;8.65;4.35;;;;;;;;;;5162924;27;20200;-82
2022/10/19 13:19:21;;;;;;;10.05;4.00;;;;;;;;;;5069740;28;20699;-82
2022/10/19 13:21:52;;;;;;;10.60;4.13;;;;;;;;;;5071282;28;20678;-82
2022/10/19 13:24:27;;;;;;;10.45;4.43;;;;;;;;;;5071467;28;20302;-82
2022/10/19 13:27:09;;;;;;;6.65;3.80;;;;;;;;;;5073536;28;20331;-82
2022/10/19 13:29:41;;;;;;;8.45;4.22;;;;;;;;;;5069529;28;20317;-82
2022/10/19 13:32:24;;;;;;;7.30;4.13;;;;;;;;;;5070930;28;20278;-82
2022/10/19 13:34:51;;;;;;;11.15;4.60;;;;;;;;;;5071187;28;20249;-83
2022/10/19 13:37:19;;;;;;;10.43;4.18;;;;;;;;;;5066588;28;20286;-82
2022/10/19 13:39:48;;;;;;;9.38;3.40;;;;;;;;;;5068493;28;20264;-82
2022/10/19 13:42:23;;;;;;;11.23;3.92;;;;;;;;;;5069939;28;20294;-82
2022/10/19 13:44:51;;;;;;;9.82;4.25;;;;;;;;;;5060686;28;20224;-83
2022/10/19 13:47:28;;;;;;;8.30;3.95;;;;;;;;;;5067924;28;20857;-82
2022/10/19 13:50:18;;;;;;;10.75;4.03;;;;;;;;;;5065873;28;20668;-82
2022/10/19 13:53:00;;;;;;;8.85;3.80;;;;;;;;;;5087008;27;20626;-82
2022/10/19 13:55:48;;;;;;;7.35;4.00;;;;;;;;;;5154450;27;20252;-82
2022/10/19 13:58:31;;;;;;;7.70;3.63;;;;;;;;;;5148879;27;20298;-82
2022/10/19 14:01:05;;;;;;;6.75;3.55;;;;;;;;;;5154818;27;20231;-82
2022/10/19 14:03:41;;;;;;;10.52;3.88;;;;;;;;;;5155271;27;20271;-82
2022/10/19 14:06:14;;;;;;;10.30;3.65;;;;;;;;;;5152717;27;20227;-86
2022/10/19 14:08:47;;;;;;;11.25;3.80;;;;;;;;;;5151325;27;20257;-83
2022/10/19 14:11:16;;;;;;;6.72;3.65;;;;;;;;;;5154691;27;20275;-83
2022/10/19 14:13:44;;;;;;;8.30;3.55;;;;;;;;;;5154255;27;20250;-83
2022/10/19 14:16:18;;;;;;;10.10;3.83;;;;;;;;;;5159740;27;20314;-84
2022/10/19 14:18:53;;;;;;;10.98;4.18;;;;;;;;;;5154439;27;20331;-83
2022/10/19 14:21:29;;;;;;;10.88;3.97;;;;;;;;;;5150146;27;20643;-83
2022/10/19 14:23:57;;;;;;;10.15;4.38;;;;;;;;;;5150817;27;20303;-84
2022/10/19 14:26:28;;;;;;;7.70;3.92;;;;;;;;;;5153509;27;20241;-83
2022/10/19 14:28:58;;;;;;;9.77;4.63;;;;;;;;;;5139691;27;20216;-83
2022/10/19 14:31:28;;;;;;;8.00;4.30;;;;;;;;;;5153715;27;20671;-84
2022/10/19 14:34:00;;;;;;;11.07;4.70;;;;;;;;;;5153879;27;20204;-84
2022/10/19 14:36:31;;;;;;;9.70;4.18;;;;;;;;;;5154084;27;20200;-83
2022/10/19 14:38:59;;;;;;;9.30;4.55;;;;;;;;;;5152792;27;20195;-83
2022/10/19 14:41:30;;;;;;;9.40;4.20;;;;;;;;;;5153834;27;20196;-83
2022/10/19 14:43:59;;;;;;;10.15;4.28;;;;;;;;;;5153875;27;20216;-83
2022/10/19 14:46:27;;;;;;;10.43;4.13;;;;;;;;;;5153786;27;20613;-83
2022/10/19 14:48:59;;;;;;;7.57;3.75;;;;;;;;;;5152265;27;20667;-83
2022/10/19 14:51:33;;;;;;;11.40;3.72;;;;;;;;;;5153728;27;20701;-82